CPA830 VHHH-KJFK
Flight info
| Callsign | CPA830 |
|---|---|
| Flight time | N/A |
| Altitude | 29000 |
| Route | DALOL V631 ENVAR M750 MOLKA/N0502F310 M750 MUKEP Y891 OVSUN/N0501F300 Y893 IGMIS/N0501F310 Y57 POROT Y809 IDLAN Y812 ADNAP R591 ADGOR DCT AGEDI/N0486F330 DCT AKISU DCT LYYLE DCT ADK DCT RIZON DCT 56N150W/N0478F350 57N140W DCT AKTEX DCT 55N120W 53N110W/N0470F370 DCT TAGOT DCT SEGAP DCT HML DCT DLH DCT TVC DCT TWIGS DCT JHW J106 MAGIO Q476 WLKES PUCKY1 |
| Aircraft | B77W/H-SDE1E2E3FGHIJ2J3J4J5M1RWXY/LB1D1 |
Departure
| Time | 2026-04-30 20:30 |
|---|---|
| Airport | Hong Kong International Airport (VHHH) |
Arrival
| Time | N/A |
|---|---|
| Airport | John F. Kennedy International Airport (KJFK) |
| Time | Latitude | Longitude | Altitude | Speed | Heading |
|---|---|---|---|---|---|
| 2026-04-30 19:52 | 22.31497 | 113.93137 | 37 ft | 0 kts | 161° |
| 2026-04-30 20:15 | 22.31498 | 113.93137 | 37 ft | 1 kts | 161° |
| 2026-04-30 20:15 | 22.31511 | 113.93132 | 37 ft | 3 kts | 161° |
| 2026-04-30 20:15 | 22.31530 | 113.93125 | 34 ft | 3 kts | 162° |
| 2026-04-30 20:15 | 22.31549 | 113.93119 | 34 ft | 3 kts | 173° |
| 2026-04-30 20:16 | 22.31569 | 113.93119 | 35 ft | 3 kts | 191° |
| 2026-04-30 20:16 | 22.31587 | 113.93125 | 34 ft | 3 kts | 220° |
| 2026-04-30 20:16 | 22.31597 | 113.93137 | 33 ft | 1 kts | 250° |
| 2026-04-30 20:16 | 22.31595 | 113.93131 | 34 ft | 3 kts | 251° |
| 2026-04-30 20:17 | 22.31588 | 113.93111 | 37 ft | 3 kts | 251° |
| 2026-04-30 20:17 | 22.31585 | 113.93099 | 37 ft | 0 kts | 251° |
| 2026-04-30 20:17 | 22.31585 | 113.93098 | 37 ft | 0 kts | 251° |
| 2026-04-30 20:20 | 22.31584 | 113.93098 | 37 ft | 1 kts | 251° |
| 2026-04-30 20:20 | 22.31576 | 113.93073 | 37 ft | 7 kts | 251° |
| 2026-04-30 20:20 | 22.31553 | 113.93000 | 37 ft | 13 kts | 251° |
| 2026-04-30 20:20 | 22.31524 | 113.92908 | 37 ft | 13 kts | 251° |
| 2026-04-30 20:21 | 22.31495 | 113.92817 | 37 ft | 13 kts | 251° |
| 2026-04-30 20:21 | 22.31507 | 113.92723 | 37 ft | 13 kts | 295° |
| 2026-04-30 20:21 | 22.31547 | 113.92636 | 37 ft | 13 kts | 296° |
| 2026-04-30 20:21 | 22.31586 | 113.92548 | 37 ft | 13 kts | 295° |
| 2026-04-30 20:22 | 22.31625 | 113.92461 | 37 ft | 13 kts | 296° |
| 2026-04-30 20:22 | 22.31641 | 113.92368 | 37 ft | 13 kts | 253° |
| 2026-04-30 20:22 | 22.31610 | 113.92269 | 37 ft | 17 kts | 251° |
| 2026-04-30 20:22 | 22.31562 | 113.92117 | 37 ft | 26 kts | 251° |
| 2026-04-30 20:23 | 22.31501 | 113.91929 | 37 ft | 27 kts | 251° |
| 2026-04-30 20:23 | 22.31440 | 113.91740 | 37 ft | 27 kts | 250° |
| 2026-04-30 20:23 | 22.31379 | 113.91552 | 37 ft | 27 kts | 251° |
| 2026-04-30 20:23 | 22.31319 | 113.91366 | 37 ft | 27 kts | 251° |
| 2026-04-30 20:24 | 22.31260 | 113.91184 | 37 ft | 27 kts | 251° |
| 2026-04-30 20:24 | 22.31197 | 113.90990 | 37 ft | 27 kts | 251° |
| 2026-04-30 20:24 | 22.31136 | 113.90802 | 37 ft | 27 kts | 251° |
| 2026-04-30 20:24 | 22.31076 | 113.90613 | 37 ft | 27 kts | 251° |
| 2026-04-30 20:25 | 22.30973 | 113.90294 | 37 ft | 16 kts | 250° |
| 2026-04-30 20:25 | 22.30936 | 113.90182 | 37 ft | 16 kts | 252° |
| 2026-04-30 20:26 | 22.30865 | 113.89959 | 37 ft | 16 kts | 251° |
| 2026-04-30 20:26 | 22.30841 | 113.89731 | 37 ft | 16 kts | 285° |
| 2026-04-30 20:26 | 22.30854 | 113.89615 | 37 ft | 16 kts | 264° |
| 2026-04-30 20:27 | 22.30837 | 113.89460 | 37 ft | 10 kts | 263° |
| 2026-04-30 20:27 | 22.30949 | 113.89390 | 34 ft | 10 kts | 24° |
| 2026-04-30 20:28 | 22.30976 | 113.89442 | 34 ft | 0 kts | 72° |
| 2026-04-30 20:28 | 22.31164 | 113.90025 | 35 ft | 106 kts | 71° |
| 2026-04-30 20:29 | 22.31913 | 113.92353 | 59 ft | 209 kts | 71° |
| 2026-04-30 20:30 | 22.33341 | 113.96726 | 1825 ft | 208 kts | 72° |
| 2026-04-30 20:30 | 22.34063 | 114.00942 | 2819 ft | 216 kts | 82° |
| 2026-04-30 20:31 | 22.33929 | 114.05787 | 3909 ft | 224 kts | 120° |
| 2026-04-30 20:32 | 22.30222 | 114.08624 | 4964 ft | 234 kts | 170° |
| 2026-04-30 20:32 | 22.26936 | 114.08741 | 5721 ft | 244 kts | 182° |
| 2026-04-30 20:33 | 22.25167 | 114.08701 | 5840 ft | 262 kts | 183° |
| 2026-04-30 20:33 | 22.21577 | 114.08636 | 5867 ft | 253 kts | 182° |
| 2026-04-30 20:33 | 22.19791 | 114.08629 | 5946 ft | 263 kts | 181° |
| 2026-04-30 20:34 | 22.16065 | 114.09279 | 6425 ft | 290 kts | 145° |
| 2026-04-30 20:34 | 22.13879 | 114.13013 | 7165 ft | 305 kts | 117° |
| 2026-04-30 20:35 | 22.12953 | 114.15090 | 7674 ft | 309 kts | 118° |
| 2026-04-30 20:35 | 22.11993 | 114.17178 | 8242 ft | 312 kts | 118° |
| 2026-04-30 20:35 | 22.10016 | 114.21380 | 9259 ft | 320 kts | 120° |
| 2026-04-30 20:36 | 22.08993 | 114.23532 | 9775 ft | 324 kts | 120° |
| 2026-04-30 20:36 | 22.07928 | 114.25687 | 10210 ft | 326 kts | 126° |
| 2026-04-30 20:36 | 22.04431 | 114.28870 | 10467 ft | 345 kts | 149° |
| 2026-04-30 20:37 | 22.02415 | 114.30397 | 10606 ft | 363 kts | 148° |
| 2026-04-30 20:37 | 22.00322 | 114.32027 | 10756 ft | 380 kts | 147° |
| 2026-04-30 20:37 | 21.98152 | 114.33738 | 11086 ft | 391 kts | 147° |
| 2026-04-30 20:37 | 21.95939 | 114.35484 | 11528 ft | 397 kts | 147° |
| 2026-04-30 20:38 | 21.93695 | 114.37256 | 12105 ft | 401 kts | 147° |
| 2026-04-30 20:38 | 21.91441 | 114.39033 | 12710 ft | 402 kts | 147° |
| 2026-04-30 20:38 | 21.89208 | 114.40792 | 13317 ft | 404 kts | 147° |
| 2026-04-30 20:39 | 21.84953 | 114.44775 | 14154 ft | 417 kts | 124° |
| 2026-04-30 20:39 | 21.83795 | 114.47660 | 14521 ft | 424 kts | 105° |
| 2026-04-30 20:39 | 21.83078 | 114.50759 | 14893 ft | 428 kts | 106° |
| 2026-04-30 20:40 | 21.81525 | 114.56996 | 15841 ft | 435 kts | 107° |
| 2026-04-30 20:40 | 21.80717 | 114.60147 | 16303 ft | 438 kts | 107° |
| 2026-04-30 20:40 | 21.79898 | 114.63326 | 16755 ft | 442 kts | 107° |
| 2026-04-30 20:41 | 21.78250 | 114.69707 | 17645 ft | 449 kts | 107° |
| 2026-04-30 20:41 | 21.77401 | 114.72996 | 18083 ft | 453 kts | 107° |
| 2026-04-30 20:41 | 21.76554 | 114.76275 | 18471 ft | 457 kts | 107° |
| 2026-04-30 20:41 | 21.75712 | 114.79530 | 18878 ft | 459 kts | 107° |
| 2026-04-30 20:42 | 21.74853 | 114.82848 | 19278 ft | 461 kts | 107° |
| 2026-04-30 20:42 | 21.74187 | 114.86232 | 19639 ft | 465 kts | 95° |
| 2026-04-30 20:42 | 21.74205 | 114.93238 | 20372 ft | 472 kts | 89° |
| 2026-04-30 20:43 | 21.74295 | 114.96781 | 20754 ft | 474 kts | 89° |
| 2026-04-30 20:43 | 21.74349 | 115.00344 | 21146 ft | 477 kts | 90° |
| 2026-04-30 20:43 | 21.74366 | 115.03936 | 21503 ft | 480 kts | 90° |
| 2026-04-30 20:44 | 21.74343 | 115.11125 | 22224 ft | 486 kts | 91° |
| 2026-04-30 20:44 | 21.74325 | 115.14773 | 22594 ft | 489 kts | 91° |
| 2026-04-30 20:44 | 21.74297 | 115.22131 | 23297 ft | 494 kts | 91° |
| 2026-04-30 20:45 | 21.74280 | 115.29567 | 23911 ft | 499 kts | 90° |
| 2026-04-30 20:45 | 21.74274 | 115.33306 | 24201 ft | 502 kts | 91° |
| 2026-04-30 20:45 | 21.74266 | 115.37070 | 24464 ft | 504 kts | 91° |
| 2026-04-30 20:46 | 21.74234 | 115.48467 | 25275 ft | 511 kts | 91° |
| 2026-04-30 20:46 | 21.74221 | 115.52315 | 25543 ft | 514 kts | 91° |
| 2026-04-30 20:47 | 21.74193 | 115.60029 | 26058 ft | 518 kts | 91° |
| 2026-04-30 20:47 | 21.74179 | 115.63927 | 26315 ft | 520 kts | 91° |
| 2026-04-30 20:48 | 21.74151 | 115.71710 | 26756 ft | 526 kts | 91° |
| 2026-04-30 20:48 | 21.74136 | 115.75656 | 27006 ft | 528 kts | 91° |
| 2026-04-30 20:48 | 21.74120 | 115.79611 | 27267 ft | 530 kts | 91° |
| 2026-04-30 20:48 | 21.74102 | 115.83584 | 27515 ft | 532 kts | 91° |
| 2026-04-30 20:49 | 21.74084 | 115.87567 | 27747 ft | 534 kts | 91° |
| 2026-04-30 20:49 | 21.74064 | 115.91577 | 27974 ft | 536 kts | 91° |
| 2026-04-30 20:49 | 21.74043 | 115.95601 | 28196 ft | 538 kts | 91° |
| 2026-04-30 20:50 | 21.73999 | 116.03682 | 28622 ft | 542 kts | 91° |
| 2026-04-30 20:50 | 21.73975 | 116.07741 | 28820 ft | 543 kts | 91° |
| 2026-04-30 20:50 | 21.73950 | 116.11813 | 28930 ft | 547 kts | 91° |
| 2026-04-30 20:51 | 21.73897 | 116.20003 | 28999 ft | 548 kts | 91° |
| 2026-04-30 20:51 | 21.73810 | 116.32261 | 28998 ft | 545 kts | 91° |
| 2026-04-30 20:52 | 21.73747 | 116.40363 | 29005 ft | 544 kts | 91° |
| 2026-04-30 20:53 | 21.73645 | 116.52594 | 29009 ft | 545 kts | 91° |
| 2026-04-30 20:53 | 21.73572 | 116.60764 | 29007 ft | 546 kts | 91° |
| 2026-04-30 20:54 | 21.73500 | 116.72997 | 29006 ft | 548 kts | 88° |
| 2026-04-30 20:55 | 21.75642 | 116.85036 | 29010 ft | 547 kts | 69° |
| 2026-04-30 20:55 | 21.78437 | 116.92639 | 29012 ft | 546 kts | 66° |
| 2026-04-30 20:56 | 21.82667 | 117.04039 | 29008 ft | 547 kts | 67° |
| 2026-04-30 20:57 | 21.86785 | 117.15444 | 29008 ft | 546 kts | 68° |
| 2026-04-30 20:57 | 21.89529 | 117.23070 | 29006 ft | 546 kts | 67° |
| 2026-04-30 20:58 | 21.93645 | 117.34511 | 29026 ft | 545 kts | 68° |
| 2026-04-30 20:58 | 21.96381 | 117.42129 | 29013 ft | 545 kts | 68° |
| 2026-04-30 20:59 | 22.00899 | 117.53259 | 28994 ft | 541 kts | 57° |
| 2026-04-30 21:00 | 22.08825 | 117.66993 | 29012 ft | 538 kts | 56° |
| 2026-04-30 21:01 | 22.14677 | 117.77335 | 29025 ft | 539 kts | 57° |
| 2026-04-30 21:02 | 22.20516 | 117.87706 | 29018 ft | 539 kts | 57° |
| 2026-04-30 21:02 | 22.24403 | 117.94611 | 29019 ft | 538 kts | 57° |
| 2026-04-30 21:03 | 22.28300 | 118.01532 | 29019 ft | 538 kts | 57° |
| 2026-04-30 21:03 | 22.32291 | 118.08363 | 29020 ft | 537 kts | 56° |
| 2026-04-30 21:04 | 22.36303 | 118.15164 | 29024 ft | 537 kts | 56° |
| 2026-04-30 21:04 | 22.42258 | 118.25419 | 29030 ft | 537 kts | 57° |
| 2026-04-30 21:05 | 22.46122 | 118.32269 | 29012 ft | 537 kts | 57° |
| 2026-04-30 21:05 | 22.50006 | 118.39166 | 29006 ft | 537 kts | 57° |
| 2026-04-30 21:06 | 22.53902 | 118.46062 | 29029 ft | 537 kts | 57° |
| 2026-04-30 21:06 | 22.57794 | 118.52953 | 29023 ft | 537 kts | 57° |
| 2026-04-30 21:07 | 22.61713 | 118.59828 | 29026 ft | 537 kts | 57° |
| 2026-04-30 21:07 | 22.65645 | 118.66706 | 29015 ft | 537 kts | 57° |
| 2026-04-30 21:08 | 22.69568 | 118.73588 | 29022 ft | 537 kts | 57° |
| 2026-04-30 21:08 | 22.73489 | 118.80487 | 29020 ft | 537 kts | 57° |
| 2026-04-30 21:09 | 22.77380 | 118.87342 | 29022 ft | 537 kts | 57° |
| 2026-04-30 21:09 | 22.81286 | 118.94234 | 29032 ft | 537 kts | 57° |
| 2026-04-30 21:10 | 22.85195 | 119.01138 | 29029 ft | 536 kts | 57° |
| 2026-04-30 21:10 | 22.89096 | 119.08037 | 29002 ft | 536 kts | 57° |
| 2026-04-30 21:11 | 22.92989 | 119.14932 | 29020 ft | 536 kts | 57° |
| 2026-04-30 21:11 | 22.96882 | 119.21837 | 29020 ft | 535 kts | 57° |
| 2026-04-30 21:12 | 23.00770 | 119.28741 | 29023 ft | 536 kts | 57° |
| 2026-04-30 21:12 | 23.04653 | 119.35646 | 29026 ft | 536 kts | 57° |
| 2026-04-30 21:13 | 23.08508 | 119.42511 | 29001 ft | 536 kts | 57° |
| 2026-04-30 21:13 | 23.12387 | 119.49429 | 28999 ft | 536 kts | 57° |
| 2026-04-30 21:14 | 23.16262 | 119.56349 | 29016 ft | 536 kts | 57° |
| 2026-04-30 21:14 | 23.20131 | 119.63267 | 29008 ft | 536 kts | 57° |
| 2026-04-30 21:15 | 23.23992 | 119.70187 | 29006 ft | 535 kts | 57° |
| 2026-04-30 21:15 | 23.27851 | 119.77117 | 29022 ft | 534 kts | 57° |
| 2026-04-30 21:16 | 23.31699 | 119.84034 | 29001 ft | 534 kts | 57° |
| 2026-04-30 21:16 | 23.35627 | 119.90806 | 28995 ft | 532 kts | 51° |
| 2026-04-30 21:17 | 23.40459 | 119.96868 | 28999 ft | 527 kts | 40° |
| 2026-04-30 21:17 | 23.44922 | 120.01381 | 29002 ft | 527 kts | 40° |
| 2026-04-30 21:18 | 23.50291 | 120.06823 | 29013 ft | 527 kts | 40° |
| 2026-04-30 21:18 | 23.55631 | 120.12311 | 29005 ft | 527 kts | 40° |
| 2026-04-30 21:19 | 23.60953 | 120.17819 | 29013 ft | 527 kts | 41° |
| 2026-04-30 21:19 | 23.66264 | 120.23322 | 29023 ft | 526 kts | 41° |
| 2026-04-30 21:20 | 23.71539 | 120.28788 | 29012 ft | 526 kts | 41° |
| 2026-04-30 21:20 | 23.76854 | 120.34302 | 29012 ft | 525 kts | 41° |
| 2026-04-30 21:21 | 23.82148 | 120.39800 | 29013 ft | 525 kts | 41° |
| 2026-04-30 21:22 | 23.90048 | 120.48017 | 29024 ft | 524 kts | 41° |
| 2026-04-30 21:23 | 24.00551 | 120.59068 | 29025 ft | 523 kts | 41° |
| 2026-04-30 21:23 | 24.08410 | 120.67379 | 29024 ft | 523 kts | 41° |
| 2026-04-30 21:24 | 24.13650 | 120.72922 | 29033 ft | 523 kts | 41° |
| 2026-04-30 21:24 | 24.18893 | 120.78474 | 29031 ft | 524 kts | 41° |
| 2026-04-30 21:25 | 24.26717 | 120.86775 | 29034 ft | 524 kts | 41° |
| 2026-04-30 21:26 | 24.34561 | 120.95112 | 29059 ft | 524 kts | 41° |
| 2026-04-30 21:27 | 24.42337 | 121.03546 | 29062 ft | 525 kts | 46° |
| 2026-04-30 21:27 | 24.46930 | 121.09803 | 29062 ft | 526 kts | 50° |
| 2026-04-30 21:28 | 24.53703 | 121.19291 | 29081 ft | 526 kts | 49° |
| 2026-04-30 21:29 | 24.60539 | 121.28734 | 29060 ft | 526 kts | 49° |
| 2026-04-30 21:30 | 24.71910 | 121.44469 | 29081 ft | 527 kts | 49° |
| 2026-04-30 21:31 | 24.83286 | 121.60268 | 29075 ft | 526 kts | 49° |
| 2026-04-30 21:32 | 24.90099 | 121.69756 | 29098 ft | 525 kts | 49° |
| 2026-04-30 21:32 | 24.94800 | 121.75847 | 29099 ft | 526 kts | 46° |
| 2026-04-30 21:33 | 25.02057 | 121.84953 | 29079 ft | 528 kts | 46° |
| 2026-04-30 21:34 | 25.06859 | 121.91095 | 29099 ft | 528 kts | 47° |
| 2026-04-30 21:34 | 25.14048 | 122.00314 | 29112 ft | 528 kts | 46° |
| 2026-04-30 21:35 | 25.18826 | 122.06488 | 29097 ft | 529 kts | 47° |
| 2026-04-30 21:35 | 25.23594 | 122.12677 | 29092 ft | 529 kts | 47° |
| 2026-04-30 21:36 | 25.28360 | 122.18866 | 29083 ft | 529 kts | 47° |
| 2026-04-30 21:37 | 25.37863 | 122.31222 | 29092 ft | 529 kts | 46° |
| 2026-04-30 21:37 | 25.42630 | 122.37432 | 29086 ft | 529 kts | 46° |
| 2026-04-30 21:38 | 25.47393 | 122.43647 | 29089 ft | 530 kts | 46° |
| 2026-04-30 21:38 | 25.52162 | 122.49873 | 29108 ft | 530 kts | 46° |
| 2026-04-30 21:39 | 25.56956 | 122.56097 | 29104 ft | 530 kts | 46° |
| 2026-04-30 21:39 | 25.61742 | 122.62306 | 29096 ft | 530 kts | 46° |
| 2026-04-30 21:40 | 25.66499 | 122.68493 | 29104 ft | 530 kts | 46° |
| 2026-04-30 21:40 | 25.71286 | 122.74734 | 29103 ft | 531 kts | 46° |
| 2026-04-30 21:41 | 25.76073 | 122.80982 | 29116 ft | 531 kts | 46° |
| 2026-04-30 21:41 | 25.80862 | 122.87242 | 29106 ft | 532 kts | 46° |
| 2026-04-30 21:42 | 25.85613 | 122.93461 | 29105 ft | 532 kts | 46° |
| 2026-04-30 21:42 | 25.90411 | 122.99748 | 29107 ft | 532 kts | 46° |
| 2026-04-30 21:43 | 25.95191 | 123.06025 | 29116 ft | 532 kts | 46° |
| 2026-04-30 21:43 | 25.99971 | 123.12315 | 29111 ft | 532 kts | 46° |
| 2026-04-30 21:44 | 26.04752 | 123.18618 | 29107 ft | 532 kts | 46° |
| 2026-04-30 21:44 | 26.09501 | 123.24886 | 29110 ft | 532 kts | 46° |
| 2026-04-30 21:45 | 26.14276 | 123.31197 | 29122 ft | 533 kts | 46° |
| 2026-04-30 21:45 | 26.19064 | 123.37532 | 29111 ft | 533 kts | 46° |
| 2026-04-30 21:46 | 26.23803 | 123.43813 | 29111 ft | 533 kts | 46° |
| 2026-04-30 21:46 | 26.28568 | 123.50137 | 29109 ft | 533 kts | 46° |
| 2026-04-30 21:47 | 26.33331 | 123.56467 | 29125 ft | 533 kts | 46° |
| 2026-04-30 21:47 | 26.38089 | 123.62800 | 29114 ft | 532 kts | 46° |
| 2026-04-30 21:48 | 26.42846 | 123.69140 | 29113 ft | 532 kts | 46° |
| 2026-04-30 21:48 | 26.47594 | 123.75478 | 29114 ft | 532 kts | 46° |
| 2026-04-30 21:49 | 26.52336 | 123.81816 | 29124 ft | 532 kts | 46° |
| 2026-04-30 21:49 | 26.57087 | 123.88175 | 29115 ft | 533 kts | 46° |
| 2026-04-30 21:50 | 26.61803 | 123.94498 | 29115 ft | 533 kts | 46° |
| 2026-04-30 21:50 | 26.66555 | 124.00876 | 29115 ft | 533 kts | 46° |
| 2026-04-30 21:51 | 26.71313 | 124.07251 | 29112 ft | 534 kts | 46° |
| 2026-04-30 21:51 | 26.76077 | 124.13635 | 29111 ft | 534 kts | 46° |
| 2026-04-30 21:52 | 26.80798 | 124.19976 | 29114 ft | 534 kts | 46° |
| 2026-04-30 21:52 | 26.85549 | 124.26369 | 29113 ft | 534 kts | 46° |
| 2026-04-30 21:53 | 26.90296 | 124.32766 | 29119 ft | 534 kts | 45° |
| 2026-04-30 21:53 | 26.95045 | 124.39174 | 29112 ft | 534 kts | 45° |
| 2026-04-30 21:54 | 26.99798 | 124.45593 | 29110 ft | 534 kts | 45° |
| 2026-04-30 21:54 | 27.04560 | 124.52008 | 29112 ft | 534 kts | 45° |
| 2026-04-30 21:55 | 27.09323 | 124.58432 | 29118 ft | 535 kts | 45° |
| 2026-04-30 21:55 | 27.14050 | 124.64818 | 29116 ft | 535 kts | 45° |
| 2026-04-30 21:56 | 27.18816 | 124.71272 | 29105 ft | 536 kts | 45° |
| 2026-04-30 21:56 | 27.23574 | 124.77723 | 29107 ft | 536 kts | 45° |
| 2026-04-30 21:57 | 27.28331 | 124.84183 | 29105 ft | 537 kts | 45° |
| 2026-04-30 21:57 | 27.33095 | 124.90662 | 29108 ft | 537 kts | 45° |
| 2026-04-30 21:58 | 27.37855 | 124.97145 | 29107 ft | 537 kts | 45° |
| 2026-04-30 21:58 | 27.42593 | 125.03586 | 29127 ft | 537 kts | 44° |
| 2026-04-30 21:59 | 27.47394 | 125.10054 | 29116 ft | 538 kts | 44° |
| 2026-04-30 22:00 | 27.54605 | 125.19780 | 29107 ft | 539 kts | 44° |
| 2026-04-30 22:00 | 27.61809 | 125.29541 | 29103 ft | 540 kts | 44° |
| 2026-04-30 22:01 | 27.66596 | 125.36038 | 29098 ft | 542 kts | 44° |
| 2026-04-30 22:01 | 27.71414 | 125.42588 | 29118 ft | 543 kts | 44° |
| 2026-04-30 22:02 | 27.76248 | 125.49170 | 29097 ft | 544 kts | 44° |
| 2026-04-30 22:02 | 27.81083 | 125.55763 | 29107 ft | 546 kts | 44° |
| 2026-04-30 22:03 | 27.85927 | 125.62380 | 29104 ft | 546 kts | 44° |
| 2026-04-30 22:03 | 27.90776 | 125.69013 | 29103 ft | 547 kts | 44° |
| 2026-04-30 22:04 | 27.95628 | 125.75661 | 29120 ft | 547 kts | 43° |
| 2026-04-30 22:05 | 28.02860 | 125.85589 | 29102 ft | 548 kts | 43° |
| 2026-04-30 22:05 | 28.07700 | 125.92246 | 29099 ft | 548 kts | 43° |
| 2026-04-30 22:06 | 28.12541 | 125.98916 | 29130 ft | 548 kts | 43° |
| 2026-04-30 22:06 | 28.19814 | 126.08953 | 29091 ft | 548 kts | 43° |
| 2026-04-30 22:07 | 28.24651 | 126.15643 | 29109 ft | 548 kts | 43° |
| 2026-04-30 22:07 | 28.28665 | 126.21203 | 29123 ft | 548 kts | 43° |
| 2026-04-30 22:08 | 28.33501 | 126.27907 | 29097 ft | 549 kts | 43° |
| 2026-04-30 22:08 | 28.38350 | 126.34643 | 29097 ft | 550 kts | 43° |
| 2026-04-30 22:09 | 28.43196 | 126.41385 | 29093 ft | 551 kts | 43° |
| 2026-04-30 22:09 | 28.48046 | 126.48145 | 29093 ft | 552 kts | 43° |
| 2026-04-30 22:10 | 28.52864 | 126.54872 | 29090 ft | 552 kts | 43° |
| 2026-04-30 22:10 | 28.57715 | 126.61653 | 29095 ft | 553 kts | 43° |
| 2026-04-30 22:11 | 28.64998 | 126.71856 | 29091 ft | 554 kts | 43° |
| 2026-04-30 22:12 | 28.69857 | 126.78677 | 29083 ft | 555 kts | 43° |
| 2026-04-30 22:12 | 28.74720 | 126.85517 | 29093 ft | 555 kts | 43° |
| 2026-04-30 22:13 | 28.79577 | 126.92355 | 29100 ft | 556 kts | 42° |
| 2026-04-30 22:13 | 28.84450 | 126.99230 | 29088 ft | 557 kts | 42° |
| 2026-04-30 22:14 | 28.89292 | 127.06074 | 29084 ft | 558 kts | 43° |
| 2026-04-30 22:14 | 28.94167 | 127.12973 | 29152 ft | 558 kts | 42° |
| 2026-04-30 22:15 | 28.99050 | 127.19893 | 29078 ft | 561 kts | 42° |
| 2026-04-30 22:15 | 29.03944 | 127.26845 | 29059 ft | 562 kts | 43° |
| 2026-04-30 22:16 | 29.08840 | 127.33812 | 29084 ft | 562 kts | 43° |
| 2026-04-30 22:17 | 29.18667 | 127.47825 | 29060 ft | 565 kts | 43° |
| 2026-04-30 22:17 | 29.26051 | 127.58389 | 29137 ft | 567 kts | 43° |
| 2026-04-30 22:18 | 29.33458 | 127.69009 | 29080 ft | 569 kts | 43° |
| 2026-04-30 22:19 | 29.40866 | 127.79665 | 29109 ft | 570 kts | 43° |
| 2026-04-30 22:20 | 29.48272 | 127.90342 | 29068 ft | 573 kts | 44° |
| 2026-04-30 22:20 | 29.55723 | 128.01108 | 29047 ft | 574 kts | 44° |
| 2026-04-30 22:21 | 29.60712 | 128.08316 | 29062 ft | 578 kts | 44° |
| 2026-04-30 22:21 | 29.65719 | 128.15565 | 29055 ft | 579 kts | 44° |
| 2026-04-30 22:22 | 29.70730 | 128.22839 | 29034 ft | 580 kts | 44° |
| 2026-04-30 22:22 | 29.75751 | 128.30140 | 29051 ft | 583 kts | 45° |
| 2026-04-30 22:23 | 29.80756 | 128.37429 | 29054 ft | 584 kts | 45° |
| 2026-04-30 22:23 | 29.85795 | 128.44785 | 29047 ft | 585 kts | 45° |
| 2026-04-30 22:24 | 29.90844 | 128.52165 | 29059 ft | 587 kts | 46° |
| 2026-04-30 22:24 | 29.95901 | 128.59572 | 29038 ft | 588 kts | 46° |
| 2026-04-30 22:25 | 30.00954 | 128.66989 | 28983 ft | 588 kts | 46° |
| 2026-04-30 22:25 | 30.05980 | 128.74376 | 29030 ft | 589 kts | 46° |
| 2026-04-30 22:26 | 30.13590 | 128.85589 | 29031 ft | 592 kts | 46° |
| 2026-04-30 22:27 | 30.18677 | 128.93103 | 29042 ft | 595 kts | 46° |
| 2026-04-30 22:27 | 30.26335 | 129.04439 | 29020 ft | 597 kts | 46° |
| 2026-04-30 22:28 | 30.33962 | 129.15755 | 28997 ft | 595 kts | 47° |
| 2026-04-30 22:29 | 30.44138 | 129.30908 | 29001 ft | 595 kts | 47° |
| 2026-04-30 22:31 | 30.61900 | 129.57499 | 29075 ft | 597 kts | 48° |
| 2026-04-30 22:32 | 30.74591 | 129.76611 | 29034 ft | 598 kts | 48° |
| 2026-04-30 22:33 | 30.87027 | 129.96059 | 28984 ft | 603 kts | 56° |
| 2026-04-30 22:35 | 30.97958 | 130.16933 | 28971 ft | 605 kts | 57° |
| 2026-04-30 22:36 | 31.08972 | 130.37759 | 28959 ft | 604 kts | 57° |
| 2026-04-30 22:37 | 31.17773 | 130.54490 | 28946 ft | 604 kts | 57° |
| 2026-04-30 22:38 | 31.26527 | 130.71222 | 29040 ft | 603 kts | 57° |
| 2026-04-30 22:39 | 31.33079 | 130.83775 | 28946 ft | 600 kts | 57° |
| 2026-04-30 22:40 | 31.46047 | 131.08758 | 28917 ft | 606 kts | 58° |
| 2026-04-30 22:41 | 31.56914 | 131.29825 | 28919 ft | 603 kts | 58° |
| 2026-04-30 22:43 | 31.69830 | 131.55039 | 28878 ft | 601 kts | 59° |
| 2026-04-30 22:44 | 31.78435 | 131.71935 | 28881 ft | 604 kts | 59° |
| 2026-04-30 22:45 | 31.91376 | 131.97495 | 28869 ft | 607 kts | 60° |
| 2026-04-30 22:47 | 32.04279 | 132.23153 | 28781 ft | 606 kts | 61° |
| 2026-04-30 22:47 | 32.08536 | 132.31661 | 28891 ft | 606 kts | 61° |
| 2026-04-30 22:48 | 32.12808 | 132.40270 | 28837 ft | 607 kts | 63° |
| 2026-04-30 22:49 | 32.24110 | 132.67005 | 28806 ft | 607 kts | 67° |
| 2026-04-30 22:51 | 32.35389 | 132.93793 | 28809 ft | 607 kts | 67° |
| 2026-04-30 22:52 | 32.40990 | 133.07181 | 28771 ft | 601 kts | 68° |
| 2026-04-30 22:53 | 32.48412 | 133.25014 | 28745 ft | 605 kts | 68° |
| 2026-04-30 22:53 | 32.53976 | 133.38435 | 28794 ft | 608 kts | 68° |
| 2026-04-30 22:55 | 32.63317 | 133.60889 | 28778 ft | 606 kts | 68° |
| 2026-04-30 22:56 | 32.70655 | 133.78837 | 28765 ft | 602 kts | 69° |
| 2026-04-30 22:57 | 32.79732 | 134.01195 | 28764 ft | 601 kts | 69° |
| 2026-04-30 22:58 | 32.85386 | 134.19612 | 28786 ft | 588 kts | 81° |
| 2026-04-30 22:59 | 32.92221 | 134.47557 | 28738 ft | 587 kts | 80° |
| 2026-05-01 07:23 | 56.03156 | -127.00983 | 35203 ft | 477 kts | 103° |
| 2026-05-01 07:24 | 56.01130 | -126.83531 | 35187 ft | 478 kts | 103° |
| 2026-05-01 07:24 | 55.99767 | -126.71919 | 35188 ft | 477 kts | 103° |
| 2026-05-01 07:25 | 55.98398 | -126.60352 | 35189 ft | 475 kts | 103° |
| 2026-05-01 07:25 | 55.97022 | -126.48829 | 35189 ft | 474 kts | 103° |
| 2026-05-01 07:26 | 55.95636 | -126.37325 | 35185 ft | 473 kts | 103° |
| 2026-05-01 07:26 | 55.94244 | -126.25863 | 35194 ft | 472 kts | 103° |
| 2026-05-01 07:27 | 55.92853 | -126.14505 | 35181 ft | 472 kts | 103° |
| 2026-05-01 07:27 | 55.91439 | -126.03057 | 35176 ft | 472 kts | 104° |
| 2026-05-01 07:28 | 55.90012 | -125.91590 | 35185 ft | 476 kts | 104° |
| 2026-05-01 07:28 | 55.88562 | -125.80038 | 35195 ft | 479 kts | 104° |
| 2026-05-01 07:29 | 55.87092 | -125.68424 | 35189 ft | 482 kts | 104° |
| 2026-05-01 07:29 | 55.85615 | -125.56850 | 35187 ft | 484 kts | 104° |
| 2026-05-01 07:30 | 55.84112 | -125.45163 | 35166 ft | 484 kts | 104° |
| 2026-05-01 07:30 | 55.82602 | -125.33505 | 35160 ft | 482 kts | 105° |
| 2026-05-01 07:31 | 55.81084 | -125.21891 | 35165 ft | 481 kts | 105° |
| 2026-05-01 07:32 | 55.77252 | -124.92988 | 35170 ft | 481 kts | 105° |
| 2026-05-01 07:33 | 55.74926 | -124.75707 | 35153 ft | 482 kts | 105° |
| 2026-05-01 07:33 | 55.72561 | -124.58351 | 35148 ft | 483 kts | 107° |
| 2026-05-01 07:34 | 55.70161 | -124.40931 | 35150 ft | 486 kts | 107° |
| 2026-05-01 07:35 | 55.68537 | -124.29257 | 35140 ft | 488 kts | 107° |
| 2026-05-01 07:35 | 55.66910 | -124.17649 | 35129 ft | 489 kts | 107° |
| 2026-05-01 07:36 | 55.65260 | -124.05961 | 35120 ft | 489 kts | 107° |
| 2026-05-01 07:36 | 55.63599 | -123.94286 | 35114 ft | 488 kts | 108° |
| 2026-05-01 07:37 | 55.61094 | -123.76842 | 35124 ft | 487 kts | 108° |
| 2026-05-01 07:37 | 55.59411 | -123.65239 | 35120 ft | 487 kts | 108° |
| 2026-05-01 07:38 | 55.57714 | -123.53621 | 35125 ft | 488 kts | 108° |
| 2026-05-01 07:39 | 55.55148 | -123.36211 | 35124 ft | 488 kts | 108° |
| 2026-05-01 07:39 | 55.52564 | -123.18859 | 35091 ft | 490 kts | 109° |
| 2026-05-01 07:40 | 55.50815 | -123.07227 | 35118 ft | 490 kts | 109° |
| 2026-05-01 07:40 | 55.49052 | -122.95584 | 35121 ft | 491 kts | 109° |
| 2026-05-01 07:41 | 55.47289 | -122.84020 | 35106 ft | 490 kts | 109° |
| 2026-05-01 07:42 | 55.44611 | -122.66618 | 35120 ft | 491 kts | 109° |
| 2026-05-01 07:42 | 55.42813 | -122.55021 | 35116 ft | 490 kts | 110° |
| 2026-05-01 07:43 | 55.41004 | -122.43447 | 35117 ft | 490 kts | 110° |
| 2026-05-01 07:43 | 55.38264 | -122.26097 | 35131 ft | 491 kts | 110° |
| 2026-05-01 07:44 | 55.34584 | -122.03016 | 35131 ft | 492 kts | 110° |
| 2026-05-01 07:45 | 55.32723 | -121.91458 | 35107 ft | 491 kts | 111° |
| 2026-05-01 07:45 | 55.30847 | -121.79903 | 35127 ft | 493 kts | 111° |
| 2026-05-01 07:46 | 55.28952 | -121.68314 | 35135 ft | 494 kts | 111° |
| 2026-05-01 07:47 | 55.26076 | -121.50892 | 35116 ft | 497 kts | 111° |
| 2026-05-01 07:47 | 55.24144 | -121.39261 | 35126 ft | 496 kts | 111° |
| 2026-05-01 07:48 | 55.21237 | -121.21858 | 35125 ft | 494 kts | 111° |
| 2026-05-01 07:48 | 55.19283 | -121.10304 | 35125 ft | 494 kts | 111° |
| 2026-05-01 07:49 | 55.16353 | -120.93103 | 35107 ft | 493 kts | 111° |
| 2026-05-01 07:50 | 55.14381 | -120.81623 | 35096 ft | 492 kts | 111° |
| 2026-05-01 07:50 | 55.11413 | -120.64479 | 35101 ft | 491 kts | 112° |
| 2026-05-01 07:51 | 55.09426 | -120.53086 | 35093 ft | 489 kts | 112° |
| 2026-05-01 07:52 | 55.06433 | -120.36072 | 35106 ft | 488 kts | 112° |
| 2026-05-01 07:52 | 55.04441 | -120.24830 | 35104 ft | 488 kts | 112° |
| 2026-05-01 07:53 | 55.01413 | -120.07860 | 35094 ft | 489 kts | 112° |
| 2026-05-01 07:53 | 54.99396 | -119.96538 | 35098 ft | 490 kts | 111° |
| 2026-05-01 07:55 | 54.95070 | -119.67714 | 35085 ft | 493 kts | 109° |
| 2026-05-01 07:56 | 54.90636 | -119.38925 | 35074 ft | 492 kts | 110° |
| 2026-05-01 07:57 | 54.87931 | -119.21713 | 35057 ft | 491 kts | 110° |
| 2026-05-01 07:58 | 54.84316 | -118.98965 | 35067 ft | 489 kts | 110° |
| 2026-05-01 07:59 | 54.80661 | -118.76268 | 35051 ft | 487 kts | 110° |
| 2026-05-01 08:00 | 54.75130 | -118.42485 | 35058 ft | 486 kts | 110° |
| 2026-05-01 08:01 | 54.71385 | -118.19978 | 35046 ft | 487 kts | 111° |
| 2026-05-01 08:02 | 54.68549 | -118.03127 | 35044 ft | 487 kts | 111° |
| 2026-05-01 08:03 | 54.65698 | -117.86355 | 35019 ft | 487 kts | 110° |
| 2026-05-01 08:03 | 54.62814 | -117.69537 | 35043 ft | 487 kts | 111° |
| 2026-05-01 08:04 | 54.58926 | -117.47125 | 35036 ft | 488 kts | 111° |
| 2026-05-01 08:05 | 54.55982 | -117.30336 | 35029 ft | 488 kts | 111° |
| 2026-05-01 08:06 | 54.53025 | -117.13628 | 35020 ft | 487 kts | 111° |
| 2026-05-01 08:07 | 54.49041 | -116.91359 | 35022 ft | 486 kts | 111° |
| 2026-05-01 08:08 | 54.46030 | -116.74703 | 35034 ft | 486 kts | 111° |
| 2026-05-01 08:09 | 54.41991 | -116.52602 | 35001 ft | 486 kts | 111° |
| 2026-05-01 08:09 | 54.40285 | -116.43345 | 35030 ft | 485 kts | 111° |
| 2026-05-01 08:10 | 54.36194 | -116.21325 | 35025 ft | 484 kts | 111° |
| 2026-05-01 08:11 | 54.32084 | -115.99468 | 35024 ft | 482 kts | 112° |
| 2026-05-01 08:12 | 54.28976 | -115.83103 | 35006 ft | 481 kts | 112° |
| 2026-05-01 08:13 | 54.25856 | -115.66821 | 35015 ft | 480 kts | 112° |
| 2026-05-01 08:13 | 54.22714 | -115.50556 | 35018 ft | 480 kts | 112° |
| 2026-05-01 08:14 | 54.20606 | -115.39724 | 35014 ft | 480 kts | 112° |
| 2026-05-01 08:14 | 54.18501 | -115.28966 | 35013 ft | 480 kts | 112° |
| 2026-05-01 08:15 | 54.15304 | -115.12741 | 35004 ft | 480 kts | 112° |
| 2026-05-01 08:16 | 54.13163 | -115.01951 | 35010 ft | 480 kts | 112° |
| 2026-05-01 08:16 | 54.11008 | -114.91148 | 35013 ft | 480 kts | 112° |
| 2026-05-01 08:17 | 54.08846 | -114.80375 | 35007 ft | 480 kts | 112° |
| 2026-05-01 08:17 | 54.06690 | -114.69682 | 35010 ft | 481 kts | 112° |
| 2026-05-01 08:18 | 54.04509 | -114.58928 | 35001 ft | 481 kts | 112° |
| 2026-05-01 08:19 | 54.00118 | -114.37453 | 34990 ft | 480 kts | 112° |
| 2026-05-01 08:19 | 53.97910 | -114.26745 | 34988 ft | 480 kts | 112° |
| 2026-05-01 08:20 | 53.95691 | -114.16038 | 34987 ft | 480 kts | 112° |
| 2026-05-01 08:20 | 53.93477 | -114.05409 | 34974 ft | 481 kts | 112° |
| 2026-05-01 08:21 | 53.91237 | -113.94716 | 34970 ft | 481 kts | 112° |
| 2026-05-01 08:21 | 53.88984 | -113.84021 | 34957 ft | 481 kts | 112° |
| 2026-05-01 08:22 | 53.86728 | -113.73360 | 34963 ft | 480 kts | 112° |
| 2026-05-01 08:22 | 53.84463 | -113.62715 | 34982 ft | 480 kts | 112° |
| 2026-05-01 08:23 | 53.82185 | -113.52066 | 34973 ft | 480 kts | 112° |
| 2026-05-01 08:23 | 53.79919 | -113.41530 | 34971 ft | 479 kts | 112° |
| 2026-05-01 08:24 | 53.77634 | -113.30957 | 34978 ft | 479 kts | 112° |
| 2026-05-01 08:24 | 53.75338 | -113.20389 | 34979 ft | 478 kts | 112° |
| 2026-05-01 08:25 | 53.73038 | -113.09858 | 34984 ft | 478 kts | 112° |
| 2026-05-01 08:25 | 53.70728 | -112.99332 | 34985 ft | 478 kts | 112° |
| 2026-05-01 08:26 | 53.68406 | -112.88810 | 34988 ft | 478 kts | 112° |
| 2026-05-01 08:26 | 53.66074 | -112.78292 | 34991 ft | 478 kts | 112° |
| 2026-05-01 08:27 | 53.63748 | -112.67853 | 34994 ft | 479 kts | 112° |
| 2026-05-01 08:27 | 53.61395 | -112.57350 | 34998 ft | 478 kts | 112° |
| 2026-05-01 08:28 | 53.59039 | -112.46881 | 35000 ft | 478 kts | 112° |
| 2026-05-01 08:28 | 53.56671 | -112.36413 | 35001 ft | 477 kts | 112° |
| 2026-05-01 08:29 | 53.54298 | -112.25978 | 35025 ft | 477 kts | 112° |
| 2026-05-01 08:29 | 53.51931 | -112.15620 | 35015 ft | 477 kts | 112° |
| 2026-05-01 08:30 | 53.49544 | -112.05218 | 35015 ft | 476 kts | 112° |
| 2026-05-01 08:30 | 53.47152 | -111.94847 | 35019 ft | 476 kts | 111° |
| 2026-05-01 08:31 | 53.44754 | -111.84507 | 35024 ft | 475 kts | 112° |
| 2026-05-01 08:31 | 53.42349 | -111.74183 | 35021 ft | 475 kts | 112° |
| 2026-05-01 08:32 | 53.39933 | -111.63864 | 35024 ft | 475 kts | 112° |
| 2026-05-01 08:32 | 53.37525 | -111.53627 | 35036 ft | 475 kts | 111° |
| 2026-05-01 08:33 | 53.35094 | -111.43341 | 35033 ft | 475 kts | 111° |
| 2026-05-01 08:33 | 53.32653 | -111.33065 | 35033 ft | 475 kts | 111° |
| 2026-05-01 08:34 | 53.30208 | -111.22816 | 35036 ft | 475 kts | 111° |
| 2026-05-01 08:34 | 53.27753 | -111.12575 | 35037 ft | 474 kts | 111° |
| 2026-05-01 08:35 | 53.25293 | -111.02362 | 35046 ft | 474 kts | 111° |
| 2026-05-01 08:35 | 53.22824 | -110.92158 | 35042 ft | 473 kts | 111° |
| 2026-05-01 08:36 | 53.20351 | -110.81987 | 35056 ft | 473 kts | 111° |
| 2026-05-01 08:36 | 53.17868 | -110.71819 | 35046 ft | 473 kts | 111° |
| 2026-05-01 08:37 | 53.15376 | -110.61661 | 35059 ft | 472 kts | 111° |
| 2026-05-01 08:37 | 53.12897 | -110.51610 | 35052 ft | 472 kts | 111° |
| 2026-05-01 08:38 | 53.10397 | -110.41515 | 35048 ft | 471 kts | 111° |
| 2026-05-01 08:38 | 53.07887 | -110.31421 | 35042 ft | 471 kts | 111° |
| 2026-05-01 08:39 | 53.05373 | -110.21363 | 35046 ft | 471 kts | 111° |
| 2026-05-01 08:39 | 53.02849 | -110.11304 | 35041 ft | 471 kts | 111° |
| 2026-05-01 08:40 | 52.99088 | -109.96298 | 35052 ft | 470 kts | 110° |
| 2026-05-01 08:40 | 52.96722 | -109.86162 | 35062 ft | 470 kts | 109° |
| 2026-05-01 08:41 | 52.94393 | -109.76025 | 35069 ft | 470 kts | 109° |
| 2026-05-01 08:41 | 52.92036 | -109.65898 | 35065 ft | 470 kts | 109° |
| 2026-05-01 08:42 | 52.89676 | -109.55868 | 35089 ft | 470 kts | 109° |
| 2026-05-01 08:42 | 52.87285 | -109.45776 | 35080 ft | 470 kts | 108° |
| 2026-05-01 08:43 | 52.84886 | -109.35699 | 35072 ft | 470 kts | 108° |
| 2026-05-01 08:43 | 52.82485 | -109.25657 | 35073 ft | 469 kts | 109° |
| 2026-05-01 08:44 | 52.80075 | -109.15623 | 35074 ft | 469 kts | 109° |
| 2026-05-01 08:44 | 52.77664 | -109.05627 | 35081 ft | 468 kts | 109° |
| 2026-05-01 08:45 | 52.75246 | -108.95648 | 35086 ft | 468 kts | 109° |
| 2026-05-01 08:45 | 52.72816 | -108.85668 | 35095 ft | 468 kts | 108° |
| 2026-05-01 08:46 | 52.70394 | -108.75767 | 35092 ft | 468 kts | 108° |
| 2026-05-01 08:46 | 52.67945 | -108.65794 | 35090 ft | 469 kts | 108° |
| 2026-05-01 08:47 | 52.65490 | -108.55846 | 35095 ft | 469 kts | 108° |
| 2026-05-01 08:47 | 52.63025 | -108.45904 | 35097 ft | 469 kts | 108° |
| 2026-05-01 08:48 | 52.60548 | -108.35958 | 35099 ft | 469 kts | 109° |
| 2026-05-01 08:48 | 52.58064 | -108.26027 | 35111 ft | 469 kts | 108° |
| 2026-05-01 08:49 | 52.55569 | -108.16107 | 35100 ft | 470 kts | 108° |
| 2026-05-01 08:49 | 52.53086 | -108.06262 | 35095 ft | 469 kts | 108° |
| 2026-05-01 08:50 | 52.50578 | -107.96364 | 35095 ft | 469 kts | 108° |
| 2026-05-01 08:50 | 52.48063 | -107.86489 | 35094 ft | 468 kts | 108° |
| 2026-05-01 08:51 | 52.45540 | -107.76625 | 35094 ft | 468 kts | 108° |
| 2026-05-01 08:51 | 52.43028 | -107.66843 | 35092 ft | 468 kts | 108° |
| 2026-05-01 08:52 | 52.40495 | -107.57027 | 35083 ft | 468 kts | 107° |
| 2026-05-01 08:52 | 52.37954 | -107.47219 | 35088 ft | 467 kts | 108° |
| 2026-05-01 08:53 | 52.35409 | -107.37442 | 35083 ft | 465 kts | 108° |
| 2026-05-01 08:53 | 52.32870 | -107.27726 | 35089 ft | 465 kts | 108° |
| 2026-05-01 08:54 | 52.30322 | -107.18017 | 35091 ft | 464 kts | 108° |
| 2026-05-01 08:54 | 52.27772 | -107.08343 | 35090 ft | 463 kts | 108° |
| 2026-05-01 08:55 | 52.25217 | -106.98688 | 35105 ft | 464 kts | 107° |
| 2026-05-01 08:55 | 52.22662 | -106.89071 | 35107 ft | 465 kts | 108° |
| 2026-05-01 08:56 | 52.20081 | -106.79398 | 35068 ft | 466 kts | 108° |
| 2026-05-01 08:56 | 52.17471 | -106.69706 | 35067 ft | 467 kts | 109° |
| 2026-05-01 08:57 | 52.15172 | -106.61732 | 35067 ft | 469 kts | 110° |
| 2026-05-01 08:57 | 52.12329 | -106.52169 | 35070 ft | 469 kts | 110° |
| 2026-05-01 08:58 | 52.09484 | -106.42601 | 35086 ft | 469 kts | 110° |
| 2026-05-01 08:58 | 52.06648 | -106.33033 | 35098 ft | 469 kts | 109° |
| 2026-05-01 08:59 | 52.03816 | -106.23485 | 35102 ft | 469 kts | 109° |
| 2026-05-01 08:59 | 52.00981 | -106.13960 | 35109 ft | 468 kts | 109° |
| 2026-05-01 09:00 | 51.98147 | -106.04472 | 35110 ft | 467 kts | 109° |
| 2026-05-01 09:00 | 51.95300 | -105.94988 | 35112 ft | 466 kts | 109° |
| 2026-05-01 09:01 | 51.92472 | -105.85606 | 35119 ft | 466 kts | 109° |
| 2026-05-01 09:01 | 51.89613 | -105.76158 | 35134 ft | 466 kts | 109° |
| 2026-05-01 09:02 | 51.86752 | -105.66734 | 35115 ft | 466 kts | 109° |
| 2026-05-01 09:02 | 51.83883 | -105.57323 | 35105 ft | 466 kts | 109° |
| 2026-05-01 09:03 | 51.81005 | -105.47921 | 35112 ft | 466 kts | 109° |
| 2026-05-01 09:03 | 51.78122 | -105.38538 | 35112 ft | 466 kts | 109° |
| 2026-05-01 09:04 | 51.75232 | -105.29169 | 35131 ft | 466 kts | 109° |
| 2026-05-01 09:04 | 51.72356 | -105.19878 | 35117 ft | 466 kts | 109° |
| 2026-05-01 09:05 | 51.69452 | -105.10532 | 35127 ft | 466 kts | 109° |
| 2026-05-01 09:05 | 51.66537 | -105.01191 | 35124 ft | 466 kts | 109° |
| 2026-05-01 09:06 | 51.63606 | -104.91836 | 35118 ft | 467 kts | 109° |
| 2026-05-01 09:06 | 51.60676 | -104.82515 | 35121 ft | 467 kts | 109° |
| 2026-05-01 09:07 | 51.57739 | -104.73210 | 35133 ft | 467 kts | 109° |
| 2026-05-01 09:07 | 51.54812 | -104.63970 | 35124 ft | 467 kts | 109° |
| 2026-05-01 09:08 | 51.51858 | -104.54684 | 35155 ft | 467 kts | 109° |
| 2026-05-01 09:08 | 51.48893 | -104.45393 | 35130 ft | 467 kts | 109° |
| 2026-05-01 09:09 | 51.45920 | -104.36114 | 35128 ft | 467 kts | 109° |
| 2026-05-01 09:09 | 51.42945 | -104.26864 | 35128 ft | 467 kts | 109° |
| 2026-05-01 09:10 | 51.39961 | -104.17624 | 35136 ft | 467 kts | 109° |
| 2026-05-01 09:10 | 51.36969 | -104.08390 | 35119 ft | 467 kts | 109° |
| 2026-05-01 09:11 | 51.33994 | -103.99241 | 35126 ft | 466 kts | 109° |
| 2026-05-01 09:11 | 51.30997 | -103.90060 | 35120 ft | 466 kts | 109° |
| 2026-05-01 09:12 | 51.27993 | -103.80894 | 35119 ft | 465 kts | 109° |
| 2026-05-01 09:12 | 51.24984 | -103.71742 | 35120 ft | 465 kts | 109° |
| 2026-05-01 09:13 | 51.21964 | -103.62589 | 35126 ft | 466 kts | 109° |
| 2026-05-01 09:13 | 51.18937 | -103.53453 | 35125 ft | 466 kts | 109° |
| 2026-05-01 09:14 | 51.15897 | -103.44312 | 35117 ft | 466 kts | 109° |
| 2026-05-01 09:14 | 51.12855 | -103.35190 | 35157 ft | 467 kts | 109° |
| 2026-05-01 09:15 | 51.09798 | -103.26066 | 35129 ft | 467 kts | 109° |
| 2026-05-01 09:15 | 51.06737 | -103.16966 | 35125 ft | 466 kts | 109° |
| 2026-05-01 09:16 | 51.03672 | -103.07883 | 35132 ft | 466 kts | 109° |
| 2026-05-01 09:17 | 50.99091 | -102.94365 | 35136 ft | 465 kts | 109° |
| 2026-05-01 09:17 | 50.94482 | -102.80835 | 35189 ft | 464 kts | 109° |
| 2026-05-01 09:18 | 50.89857 | -102.67333 | 35153 ft | 464 kts | 109° |
| 2026-05-01 09:19 | 50.85223 | -102.53882 | 35149 ft | 463 kts | 109° |
| 2026-05-01 09:20 | 50.80586 | -102.40489 | 35151 ft | 462 kts | 109° |
| 2026-05-01 09:21 | 50.74404 | -102.22739 | 35198 ft | 462 kts | 109° |
| 2026-05-01 09:21 | 50.69729 | -102.09402 | 35173 ft | 462 kts | 109° |
| 2026-05-01 09:22 | 50.63478 | -101.91678 | 35159 ft | 462 kts | 109° |
| 2026-05-01 09:23 | 50.58801 | -101.78497 | 35166 ft | 461 kts | 109° |
| 2026-05-01 09:24 | 50.54093 | -101.65293 | 35207 ft | 461 kts | 109° |
| 2026-05-01 09:25 | 50.47792 | -101.47732 | 35180 ft | 461 kts | 110° |
| 2026-05-01 09:26 | 50.43055 | -101.34610 | 35188 ft | 460 kts | 110° |
| 2026-05-01 09:26 | 50.38331 | -101.21589 | 35185 ft | 460 kts | 110° |
| 2026-05-01 09:27 | 50.33568 | -101.08526 | 35240 ft | 461 kts | 110° |
| 2026-05-01 09:28 | 50.30379 | -100.99812 | 35207 ft | 462 kts | 110° |
| 2026-05-01 09:28 | 50.27178 | -100.91099 | 35196 ft | 461 kts | 110° |
| 2026-05-01 09:29 | 50.22373 | -100.78080 | 35215 ft | 461 kts | 110° |
| 2026-05-01 09:30 | 50.17557 | -100.65093 | 35221 ft | 460 kts | 111° |
| 2026-05-01 09:30 | 50.12728 | -100.52137 | 35222 ft | 462 kts | 111° |
| 2026-05-01 09:31 | 50.09495 | -100.43492 | 35220 ft | 462 kts | 112° |
| 2026-05-01 09:32 | 50.04617 | -100.30510 | 35223 ft | 463 kts | 112° |
| 2026-05-01 09:32 | 49.99738 | -100.17591 | 35222 ft | 464 kts | 112° |
| 2026-05-01 09:33 | 49.96462 | -100.08949 | 35229 ft | 464 kts | 112° |
| 2026-05-01 09:34 | 49.91520 | -99.95964 | 35175 ft | 466 kts | 113° |
| 2026-05-01 09:34 | 49.86799 | -99.82832 | 35165 ft | 463 kts | 111° |
| 2026-05-01 09:35 | 49.82233 | -99.69616 | 35187 ft | 464 kts | 111° |
| 2026-05-01 09:36 | 49.79177 | -99.60901 | 35217 ft | 464 kts | 112° |
| 2026-05-01 09:36 | 49.76076 | -99.52130 | 35249 ft | 464 kts | 112° |
| 2026-05-01 09:37 | 49.72967 | -99.43369 | 35233 ft | 465 kts | 113° |
| 2026-05-01 09:37 | 49.68291 | -99.30248 | 35230 ft | 465 kts | 113° |
| 2026-05-01 09:38 | 49.63597 | -99.17142 | 35227 ft | 465 kts | 113° |
| 2026-05-01 09:39 | 49.58913 | -99.04132 | 35235 ft | 464 kts | 114° |
| 2026-05-01 09:39 | 49.55771 | -98.95436 | 35229 ft | 465 kts | 114° |
| 2026-05-01 09:40 | 49.51045 | -98.82412 | 35237 ft | 464 kts | 115° |
| 2026-05-01 09:41 | 49.47883 | -98.73738 | 35227 ft | 464 kts | 115° |
| 2026-05-01 09:41 | 49.43138 | -98.60775 | 35230 ft | 463 kts | 115° |
| 2026-05-01 09:42 | 49.39967 | -98.52143 | 35229 ft | 463 kts | 115° |
| 2026-05-01 09:43 | 49.33628 | -98.34980 | 35235 ft | 463 kts | 115° |
| 2026-05-01 09:43 | 49.30438 | -98.26387 | 35231 ft | 464 kts | 115° |
| 2026-05-01 09:44 | 49.25638 | -98.13507 | 35228 ft | 464 kts | 115° |
| 2026-05-01 09:45 | 49.22430 | -98.04935 | 35232 ft | 464 kts | 116° |
| 2026-05-01 09:45 | 49.17620 | -97.92137 | 35243 ft | 465 kts | 116° |
| 2026-05-01 09:46 | 49.14397 | -97.83591 | 35237 ft | 465 kts | 116° |
| 2026-05-01 09:46 | 49.11162 | -97.75044 | 35226 ft | 464 kts | 116° |
| 2026-05-01 09:47 | 49.07923 | -97.66514 | 35228 ft | 464 kts | 116° |
| 2026-05-01 09:47 | 49.05229 | -97.59441 | 35231 ft | 464 kts | 117° |
| 2026-05-01 09:48 | 49.01983 | -97.50942 | 35224 ft | 464 kts | 117° |
| 2026-05-01 09:48 | 48.98731 | -97.42460 | 35234 ft | 463 kts | 117° |
| 2026-05-01 09:49 | 48.95476 | -97.33988 | 35221 ft | 463 kts | 117° |
| 2026-05-01 09:49 | 48.92215 | -97.25532 | 35212 ft | 463 kts | 117° |
| 2026-05-01 09:50 | 48.88968 | -97.17135 | 35206 ft | 463 kts | 117° |
| 2026-05-01 09:50 | 48.85704 | -97.08713 | 35200 ft | 463 kts | 117° |
| 2026-05-01 09:51 | 48.82454 | -97.00270 | 35211 ft | 463 kts | 118° |
| 2026-05-01 09:51 | 48.79206 | -96.91837 | 35202 ft | 463 kts | 118° |
| 2026-05-01 09:52 | 48.75949 | -96.83405 | 35195 ft | 463 kts | 118° |
| 2026-05-01 09:52 | 48.72683 | -96.74985 | 35199 ft | 463 kts | 118° |
| 2026-05-01 09:53 | 48.69432 | -96.66633 | 35207 ft | 463 kts | 118° |
| 2026-05-01 09:53 | 48.66153 | -96.58237 | 35215 ft | 463 kts | 118° |
| 2026-05-01 09:54 | 48.62873 | -96.49863 | 35241 ft | 463 kts | 118° |
| 2026-05-01 09:54 | 48.59584 | -96.41495 | 35220 ft | 463 kts | 118° |
| 2026-05-01 09:55 | 48.56289 | -96.33133 | 35221 ft | 462 kts | 118° |
| 2026-05-01 09:55 | 48.52995 | -96.24803 | 35218 ft | 462 kts | 118° |
| 2026-05-01 09:56 | 48.49692 | -96.16478 | 35228 ft | 462 kts | 118° |
| 2026-05-01 09:56 | 48.46387 | -96.08171 | 35222 ft | 462 kts | 119° |
| 2026-05-01 09:57 | 48.43077 | -95.99879 | 35227 ft | 462 kts | 119° |
| 2026-05-01 09:57 | 48.39756 | -95.91583 | 35221 ft | 462 kts | 119° |
| 2026-05-01 09:58 | 48.36434 | -95.83310 | 35218 ft | 462 kts | 119° |
| 2026-05-01 09:58 | 48.33106 | -95.75050 | 35218 ft | 462 kts | 119° |
| 2026-05-01 09:59 | 48.29793 | -95.66852 | 35217 ft | 462 kts | 119° |
| 2026-05-01 09:59 | 48.26451 | -95.58606 | 35214 ft | 462 kts | 119° |
| 2026-05-01 10:00 | 48.23101 | -95.50368 | 35223 ft | 462 kts | 120° |
| 2026-05-01 10:00 | 48.19739 | -95.42124 | 35214 ft | 462 kts | 120° |
| 2026-05-01 10:01 | 48.16377 | -95.33905 | 35210 ft | 462 kts | 120° |
| 2026-05-01 10:01 | 48.13028 | -95.25745 | 35205 ft | 462 kts | 120° |
| 2026-05-01 10:02 | 48.09656 | -95.17552 | 35201 ft | 462 kts | 120° |
| 2026-05-01 10:02 | 48.06285 | -95.09385 | 35211 ft | 461 kts | 120° |
| 2026-05-01 10:03 | 48.02896 | -95.01202 | 35201 ft | 461 kts | 120° |
| 2026-05-01 10:03 | 47.99512 | -94.93054 | 35196 ft | 461 kts | 120° |
| 2026-05-01 10:04 | 47.96147 | -94.84976 | 35199 ft | 461 kts | 120° |
| 2026-05-01 10:04 | 47.92749 | -94.76843 | 35198 ft | 461 kts | 120° |
| 2026-05-01 10:05 | 47.89347 | -94.68725 | 35182 ft | 461 kts | 120° |
| 2026-05-01 10:05 | 47.85939 | -94.60619 | 35195 ft | 461 kts | 120° |
| 2026-05-01 10:06 | 47.82524 | -94.52517 | 35191 ft | 462 kts | 121° |
| 2026-05-01 10:06 | 47.79104 | -94.44431 | 35202 ft | 462 kts | 121° |
| 2026-05-01 10:07 | 47.75701 | -94.36408 | 35203 ft | 461 kts | 121° |
| 2026-05-01 10:07 | 47.72273 | -94.28348 | 35201 ft | 461 kts | 121° |
| 2026-05-01 10:08 | 47.67119 | -94.16277 | 35206 ft | 461 kts | 121° |
| 2026-05-01 10:09 | 47.63678 | -94.08245 | 35202 ft | 461 kts | 121° |
| 2026-05-01 10:09 | 47.60231 | -94.00227 | 35201 ft | 461 kts | 121° |
| 2026-05-01 10:10 | 47.56777 | -93.92214 | 35202 ft | 461 kts | 121° |
| 2026-05-01 10:10 | 47.51589 | -93.80221 | 35197 ft | 461 kts | 121° |
| 2026-05-01 10:11 | 47.48148 | -93.72298 | 35187 ft | 461 kts | 121° |
| 2026-05-01 10:11 | 47.44673 | -93.64318 | 35180 ft | 461 kts | 121° |
| 2026-05-01 10:12 | 47.41194 | -93.56351 | 35176 ft | 461 kts | 121° |
| 2026-05-01 10:13 | 47.35963 | -93.44416 | 35166 ft | 461 kts | 121° |
| 2026-05-01 10:13 | 47.32487 | -93.36517 | 35160 ft | 462 kts | 121° |
| 2026-05-01 10:14 | 47.27227 | -93.24602 | 35174 ft | 462 kts | 121° |
| 2026-05-01 10:14 | 47.23709 | -93.16662 | 35176 ft | 463 kts | 121° |
| 2026-05-01 10:15 | 47.20179 | -93.08720 | 35165 ft | 463 kts | 122° |
| 2026-05-01 10:15 | 47.16647 | -93.00793 | 35165 ft | 463 kts | 122° |
| 2026-05-01 10:16 | 47.13137 | -92.92941 | 35162 ft | 463 kts | 122° |
| 2026-05-01 10:17 | 47.07822 | -92.81090 | 35191 ft | 463 kts | 122° |
| 2026-05-01 10:17 | 47.02486 | -92.69245 | 35178 ft | 464 kts | 122° |
| 2026-05-01 10:18 | 46.97138 | -92.57423 | 35163 ft | 464 kts | 122° |
| 2026-05-01 10:19 | 46.93588 | -92.49602 | 35148 ft | 464 kts | 122° |
| 2026-05-01 10:19 | 46.89997 | -92.41714 | 35150 ft | 465 kts | 122° |
| 2026-05-01 10:20 | 46.84603 | -92.29903 | 35129 ft | 466 kts | 122° |
| 2026-05-01 10:20 | 46.81038 | -92.22051 | 35127 ft | 466 kts | 120° |
| 2026-05-01 10:21 | 46.77009 | -92.09245 | 35153 ft | 463 kts | 110° |
| 2026-05-01 10:22 | 46.73380 | -91.96167 | 35149 ft | 463 kts | 110° |
| 2026-05-01 10:23 | 46.69693 | -91.83133 | 35160 ft | 464 kts | 110° |
| 2026-05-01 10:23 | 46.65978 | -91.70126 | 35161 ft | 464 kts | 111° |
| 2026-05-01 10:24 | 46.61014 | -91.52847 | 35163 ft | 464 kts | 111° |
| 2026-05-01 10:25 | 46.56011 | -91.35552 | 35152 ft | 463 kts | 111° |
| 2026-05-01 10:26 | 46.53504 | -91.26929 | 35157 ft | 463 kts | 111° |
| 2026-05-01 10:27 | 46.48471 | -91.09711 | 35160 ft | 463 kts | 111° |
| 2026-05-01 10:28 | 46.44684 | -90.96837 | 35154 ft | 464 kts | 111° |
| 2026-05-01 10:28 | 46.40867 | -90.83925 | 35143 ft | 465 kts | 111° |
| 2026-05-01 10:29 | 46.37025 | -90.70995 | 35154 ft | 466 kts | 111° |
| 2026-05-01 10:30 | 46.31885 | -90.53805 | 35142 ft | 467 kts | 112° |
| 2026-05-01 10:31 | 46.26686 | -90.36535 | 35148 ft | 468 kts | 112° |
| 2026-05-01 10:32 | 46.22776 | -90.23627 | 35140 ft | 469 kts | 112° |
| 2026-05-01 10:33 | 46.17512 | -90.06349 | 35124 ft | 470 kts | 112° |
| 2026-05-01 10:34 | 46.13546 | -89.93413 | 35098 ft | 470 kts | 112° |
| 2026-05-01 10:34 | 46.10889 | -89.84780 | 35106 ft | 470 kts | 112° |
| 2026-05-01 10:35 | 46.06910 | -89.71912 | 35084 ft | 471 kts | 112° |
| 2026-05-01 10:35 | 46.04238 | -89.63304 | 35079 ft | 471 kts | 112° |
| 2026-05-01 10:36 | 46.00212 | -89.50390 | 35084 ft | 471 kts | 112° |
| 2026-05-01 10:37 | 45.97521 | -89.41795 | 35089 ft | 471 kts | 112° |
| 2026-05-01 10:37 | 45.93931 | -89.30376 | 35085 ft | 471 kts | 113° |
| 2026-05-01 10:38 | 45.91224 | -89.21796 | 35083 ft | 471 kts | 113° |
| 2026-05-01 10:38 | 45.88509 | -89.13219 | 35075 ft | 471 kts | 113° |
| 2026-05-01 10:39 | 45.85790 | -89.04659 | 35120 ft | 472 kts | 113° |
| 2026-05-01 10:39 | 45.83063 | -88.96104 | 35117 ft | 472 kts | 113° |
| 2026-05-01 10:40 | 45.80324 | -88.87541 | 35114 ft | 472 kts | 113° |
| 2026-05-01 10:40 | 45.77598 | -88.79042 | 35128 ft | 473 kts | 114° |
| 2026-05-01 10:41 | 45.74841 | -88.70478 | 35107 ft | 473 kts | 114° |
| 2026-05-01 10:42 | 45.70693 | -88.57644 | 35108 ft | 474 kts | 114° |
| 2026-05-01 10:42 | 45.67913 | -88.49078 | 35109 ft | 474 kts | 114° |
| 2026-05-01 10:43 | 45.65130 | -88.40533 | 35113 ft | 474 kts | 114° |
| 2026-05-01 10:43 | 45.62356 | -88.32044 | 35106 ft | 475 kts | 114° |
| 2026-05-01 10:44 | 45.59555 | -88.23497 | 35100 ft | 475 kts | 114° |
| 2026-05-01 10:44 | 45.56747 | -88.14959 | 35101 ft | 475 kts | 114° |
| 2026-05-01 10:45 | 45.53935 | -88.06433 | 35098 ft | 475 kts | 114° |
| 2026-05-01 10:45 | 45.51114 | -87.97911 | 35106 ft | 475 kts | 115° |
| 2026-05-01 10:46 | 45.48304 | -87.89449 | 35103 ft | 475 kts | 115° |
| 2026-05-01 10:46 | 45.45469 | -87.80938 | 35112 ft | 475 kts | 115° |
| 2026-05-01 10:47 | 45.42631 | -87.72447 | 35104 ft | 475 kts | 115° |
| 2026-05-01 10:47 | 45.39781 | -87.63949 | 35115 ft | 475 kts | 115° |
| 2026-05-01 10:48 | 45.36927 | -87.55463 | 35111 ft | 475 kts | 115° |
| 2026-05-01 10:48 | 45.34066 | -87.46983 | 35100 ft | 475 kts | 115° |
| 2026-05-01 10:49 | 45.31218 | -87.38572 | 35112 ft | 475 kts | 115° |
| 2026-05-01 10:49 | 45.28342 | -87.30104 | 35111 ft | 475 kts | 115° |
| 2026-05-01 10:50 | 45.27029 | -87.26244 | 35112 ft | 475 kts | 116° |